Time;durP1;ratioP1;P1;durP2;ratioP2;P2;SDS_P1;SDS_P2;PMS_P1;PMS_P2;Temp;Humidity;BMP_temperature;BMP_pressure;BME280_temperature;BME280_humidity;BME280_pressure;Samples;Min_cycle;Max_cycle;Signal;HPM_P1;HPM_P2
2023/10/03 00:00:28;;;;;;;13.47;9.10;;;15.80;99.90;;;;;;5033400;28;20183;-79
2023/10/03 00:03:07;;;;;;;14.27;9.63;;;15.80;99.90;;;;;;5031603;28;20287;-78
2023/10/03 00:05:33;;;;;;;12.10;8.33;;;15.70;99.90;;;;;;5033237;28;20280;-78
2023/10/03 00:08:03;;;;;;;13.63;9.47;;;15.70;99.90;;;;;;5033422;28;20974;-77
2023/10/03 00:10:30;;;;;;;16.90;9.33;;;15.70;99.90;;;;;;5033177;28;20164;-77
2023/10/03 00:12:56;;;;;;;17.03;10.10;;;15.70;99.90;;;;;;5032283;28;20250;-78
2023/10/03 00:15:24;;;;;;;14.40;8.97;;;15.60;99.90;;;;;;5037421;28;20204;-79
2023/10/03 00:17:51;;;;;;;14.30;9.20;;;15.60;99.90;;;;;;5035799;28;20241;-78
2023/10/03 00:20:18;;;;;;;12.03;8.83;;;15.60;99.90;;;;;;5033225;28;20204;-79
2023/10/03 00:22:44;;;;;;;12.33;8.90;;;15.60;99.90;;;;;;5040100;28;20159;-78
2023/10/03 00:25:24;;;;;;;13.37;9.57;;;15.50;99.90;;;;;;5052868;28;20177;-78
2023/10/03 00:27:51;;;;;;;10.80;8.03;;;15.50;99.90;;;;;;5035279;28;20707;-80
2023/10/03 00:30:19;;;;;;;14.50;9.77;;;15.50;99.90;;;;;;5033408;28;20170;-80
2023/10/03 00:32:45;;;;;;;12.37;8.67;;;15.40;99.90;;;;;;5033584;28;20256;-80
2023/10/03 00:35:12;;;;;;;12.07;8.93;;;15.30;99.90;;;;;;5045723;28;20192;-79
2023/10/03 00:37:38;;;;;;;11.63;8.70;;;15.30;99.90;;;;;;5041077;28;20583;-78
2023/10/03 00:40:25;;;;;;;11.93;8.80;;;15.20;99.90;;;;;;5033274;28;20356;-81
2023/10/03 00:42:54;;;;;;;11.50;8.27;;;15.20;99.90;;;;;;5032416;28;20160;-78
2023/10/03 00:45:25;;;;;;;16.27;8.80;;;15.10;99.90;;;;;;5042884;28;20179;-78
2023/10/03 00:47:53;;;;;;;15.53;9.13;;;15.10;99.90;;;;;;5032930;28;20240;-77
2023/10/03 00:50:20;;;;;;;12.70;9.30;;;15.10;99.90;;;;;;5033197;28;20655;-77
2023/10/03 00:53:13;;;;;;;12.90;8.97;;;15.10;99.90;;;;;;5032253;28;20513;-78
2023/10/03 00:55:43;;;;;;;11.87;8.17;;;15.00;99.90;;;;;;5031695;28;20186;-79
2023/10/03 01:00:45;;;;;;;12.73;8.00;;;15.00;99.90;;;;;;5037442;28;20185;-78
2023/10/03 01:03:32;;;;;;;13.07;8.90;;;15.00;99.90;;;;;;5035718;28;20702;-79
2023/10/03 01:06:08;;;;;;;15.17;9.10;;;15.00;99.90;;;;;;5041265;28;20181;-80
2023/10/03 01:08:38;;;;;;;11.67;8.47;;;14.90;99.90;;;;;;5046242;28;20153;-78
2023/10/03 01:11:15;;;;;;;14.37;9.10;;;14.90;99.90;;;;;;5035780;28;20207;-78
2023/10/03 01:13:42;;;;;;;10.60;8.53;;;14.90;99.90;;;;;;5037053;28;20153;-78
2023/10/03 01:16:08;;;;;;;9.87;7.83;;;14.90;99.90;;;;;;5039347;28;20178;-77
2023/10/03 01:18:37;;;;;;;13.20;8.70;;;14.90;99.90;;;;;;5041022;28;20232;-77
2023/10/03 01:21:05;;;;;;;11.53;8.30;;;14.90;99.90;;;;;;5039624;28;20229;-78
2023/10/03 01:23:36;;;;;;;11.20;8.23;;;14.90;99.90;;;;;;5036240;28;20208;-77
2023/10/03 01:26:05;;;;;;;13.63;9.53;;;14.80;99.90;;;;;;5036339;28;20216;-77
2023/10/03 01:28:31;;;;;;;12.60;8.93;;;14.80;99.90;;;;;;5036642;28;20173;-78
2023/10/03 01:30:57;;;;;;;12.87;8.73;;;14.80;99.90;;;;;;5037354;28;20220;-78
2023/10/03 01:33:26;;;;;;;11.20;8.73;;;14.80;99.90;;;;;;5047353;28;20207;-77
2023/10/03 01:35:55;;;;;;;15.03;9.40;;;14.70;99.90;;;;;;5040084;28;20183;-76
2023/10/03 01:38:22;;;;;;;13.43;8.53;;;14.70;99.90;;;;;;5036994;28;20227;-77
2023/10/03 01:40:52;;;;;;;12.30;8.77;;;14.70;99.90;;;;;;5036585;28;20954;-77
2023/10/03 01:43:18;;;;;;;13.67;8.67;;;14.70;99.90;;;;;;5034807;28;20581;-80
2023/10/03 01:45:44;;;;;;;13.00;9.13;;;14.70;99.90;;;;;;5036641;28;20552;-79
2023/10/03 01:48:12;;;;;;;12.50;8.73;;;14.70;99.90;;;;;;5036252;28;20193;-78
2023/10/03 01:50:38;;;;;;;14.27;9.50;;;14.60;99.90;;;;;;5036043;28;20176;-77
2023/10/03 01:53:04;;;;;;;13.33;9.20;;;14.60;99.90;;;;;;5035961;28;20173;-78
2023/10/03 01:55:30;;;;;;;11.93;8.87;;;14.60;99.90;;;;;;5036198;28;20181;-78
2023/10/03 01:57:56;;;;;;;12.93;9.17;;;14.60;99.90;;;;;;5035853;28;20209;-78
2023/10/03 02:00:25;;;;;;;12.67;8.60;;;14.60;99.90;;;;;;5052652;28;20176;-78
2023/10/03 02:03:01;;;;;;;13.43;9.50;;;14.50;99.90;;;;;;5055692;28;20180;-78
2023/10/03 02:05:27;;;;;;;13.77;9.50;;;14.60;99.90;;;;;;5056451;28;20219;-79
2023/10/03 02:08:39;;;;;;;11.30;8.97;;;14.50;99.90;;;;;;5057091;28;20172;-77
2023/10/03 02:10:40;;;;;;;13.30;9.10;;;14.50;99.90;;;;;;5050370;28;20196;-77
2023/10/03 02:13:10;;;;;;;11.07;8.60;;;14.60;99.90;;;;;;5056571;28;20252;-80
2023/10/03 02:15:36;;;;;;;12.20;8.50;;;14.50;99.90;;;;;;5065178;28;20180;-78
2023/10/03 02:18:03;;;;;;;11.73;8.47;;;14.50;99.90;;;;;;5056036;28;20204;-77
2023/10/03 02:20:30;;;;;;;12.87;8.63;;;14.50;99.90;;;;;;5055496;28;20234;-78
2023/10/03 02:22:57;;;;;;;12.17;8.50;;;14.50;99.90;;;;;;5043010;28;20188;-80
2023/10/03 02:25:30;;;;;;;10.57;8.33;;;14.40;99.90;;;;;;5056685;28;20650;-77
2023/10/03 02:27:57;;;;;;;13.10;8.83;;;14.40;99.90;;;;;;5057135;28;20163;-78
2023/10/03 02:30:25;;;;;;;12.27;7.97;;;14.20;99.90;;;;;;5065386;28;20692;-78
2023/10/03 02:33:04;;;;;;;13.50;9.03;;;14.30;99.90;;;;;;5055273;28;20563;-79
2023/10/03 02:35:30;;;;;;;13.57;7.87;;;14.20;99.90;;;;;;5055170;28;20203;-77
2023/10/03 02:37:56;;;;;;;11.97;7.83;;;14.20;99.90;;;;;;5048493;28;20245;-79
2023/10/03 02:40:30;;;;;;;14.30;8.07;;;14.20;99.90;;;;;;5045286;28;20171;-77
2023/10/03 02:42:59;;;;;;;11.47;8.63;;;14.20;99.90;;;;;;5054905;28;20160;-78
2023/10/03 02:45:25;;;;;;;12.07;7.97;;;14.20;99.90;;;;;;5054866;28;20229;-78
2023/10/03 02:47:55;;;;;;;13.97;10.17;;;14.20;99.90;;;;;;5056737;28;20168;-76
2023/10/03 02:50:23;;;;;;;11.87;7.83;;;14.20;99.90;;;;;;5058994;28;20200;-77
2023/10/03 02:52:51;;;;;;;10.30;7.60;;;14.20;99.90;;;;;;5059135;28;20195;-78
2023/10/03 02:55:17;;;;;;;11.17;8.20;;;14.10;99.90;;;;;;5054848;28;20179;-78
2023/10/03 02:57:44;;;;;;;9.67;7.70;;;14.10;99.90;;;;;;5036207;28;20203;-79
2023/10/03 03:00:15;;;;;;;11.47;8.13;;;14.10;99.90;;;;;;5057488;28;20183;-79
2023/10/03 03:02:49;;;;;;;12.43;8.57;;;14.10;99.90;;;;;;5057849;28;20694;-81
2023/10/03 03:05:16;;;;;;;12.63;8.50;;;14.10;99.90;;;;;;5066938;28;20170;-78
2023/10/03 03:07:44;;;;;;;11.23;7.77;;;14.10;99.90;;;;;;5069566;28;20536;-77
2023/10/03 03:10:13;;;;;;;12.07;9.07;;;14.10;99.90;;;;;;5037827;28;20655;-79
2023/10/03 03:12:43;;;;;;;9.67;7.57;;;14.10;99.90;;;;;;5054916;28;20655;-78
2023/10/03 03:15:23;;;;;;;11.27;7.67;;;14.00;99.90;;;;;;5054505;28;20278;-77
2023/10/03 03:17:53;;;;;;;12.77;8.50;;;14.00;99.90;;;;;;5054208;28;20211;-78
2023/10/03 03:20:26;;;;;;;11.23;8.27;;;13.90;99.90;;;;;;5054407;28;20203;-79
2023/10/03 03:22:52;;;;;;;11.17;8.37;;;13.90;99.90;;;;;;5053902;28;20180;-78
2023/10/03 03:25:24;;;;;;;9.57;8.23;;;13.90;99.90;;;;;;5053992;28;20531;-79
2023/10/03 03:27:57;;;;;;;10.73;8.50;;;13.80;99.90;;;;;;5036104;28;20191;-79
2023/10/03 03:30:33;;;;;;;12.33;8.70;;;13.80;99.90;;;;;;5053919;28;20670;-79
2023/10/03 03:32:59;;;;;;;12.63;8.50;;;13.80;99.90;;;;;;5053957;28;20214;-78
2023/10/03 03:35:25;;;;;;;11.70;8.13;;;13.80;99.90;;;;;;5053834;28;20171;-77
2023/10/03 03:37:56;;;;;;;13.50;8.40;;;13.80;99.90;;;;;;5035431;28;20224;-77
2023/10/03 03:40:34;;;;;;;12.43;7.77;;;13.80;99.90;;;;;;5053726;28;20160;-78
2023/10/03 03:43:05;;;;;;;11.97;8.07;;;13.80;99.90;;;;;;5053497;28;20159;-79
2023/10/03 03:45:31;;;;;;;10.50;8.60;;;13.80;99.90;;;;;;5054545;28;20168;-79
2023/10/03 03:47:57;;;;;;;11.43;8.43;;;13.80;99.90;;;;;;5035672;28;20595;-79
2023/10/03 03:50:23;;;;;;;11.13;8.10;;;13.80;99.90;;;;;;5059580;28;20219;-81
2023/10/03 03:52:49;;;;;;;11.83;8.00;;;13.80;99.90;;;;;;5075710;28;20316;-78
2023/10/03 03:55:18;;;;;;;11.00;8.03;;;13.70;99.90;;;;;;5065180;28;20179;-79
2023/10/03 03:57:45;;;;;;;10.03;7.90;;;13.70;99.90;;;;;;5062103;28;20214;-77
2023/10/03 04:00:14;;;;;;;13.17;8.67;;;13.70;99.90;;;;;;5058785;28;20168;-78
2023/10/03 04:02:40;;;;;;;10.70;7.47;;;13.70;99.90;;;;;;5053298;28;20184;-79
2023/10/03 04:05:07;;;;;;;11.93;8.10;;;13.70;99.90;;;;;;5053140;28;20168;-79
2023/10/03 04:07:38;;;;;;;10.43;7.70;;;13.70;99.90;;;;;;5054321;28;20171;-78
2023/10/03 04:10:12;;;;;;;10.93;8.43;;;13.70;99.90;;;;;;5040722;28;20636;-79
2023/10/03 04:12:44;;;;;;;10.03;8.00;;;13.70;99.90;;;;;;5057574;28;20160;-80
2023/10/03 04:15:19;;;;;;;9.57;7.67;;;13.70;99.90;;;;;;5054865;28;20621;-78
2023/10/03 04:17:46;;;;;;;11.33;7.63;;;13.70;99.90;;;;;;5052701;28;20191;-79
2023/10/03 04:22:51;;;;;;;12.30;7.93;;;13.60;99.90;;;;;;5053097;28;20218;-77
2023/10/03 04:25:21;;;;;;;14.10;8.50;;;13.60;99.90;;;;;;5053126;28;20255;-76
2023/10/03 04:27:48;;;;;;;12.37;8.53;;;13.60;99.90;;;;;;5052789;28;20185;-80
2023/10/03 04:30:15;;;;;;;10.97;8.43;;;13.60;99.90;;;;;;5061402;28;20164;-75
2023/10/03 04:32:42;;;;;;;11.37;8.07;;;13.50;99.90;;;;;;5037406;28;20183;-80
2023/10/03 04:35:13;;;;;;;13.23;8.83;;;13.50;99.90;;;;;;5054028;28;20176;-80
2023/10/03 04:37:42;;;;;;;11.63;7.70;;;13.50;99.90;;;;;;5052454;28;20192;-79
2023/10/03 04:40:11;;;;;;;14.43;7.90;;;13.50;99.90;;;;;;5052586;28;20178;-79
2023/10/03 04:42:38;;;;;;;10.40;7.90;;;13.40;99.90;;;;;;5052482;28;20171;-79
2023/10/03 04:45:07;;;;;;;11.97;8.60;;;13.40;99.90;;;;;;5034889;28;20579;-79
2023/10/03 04:47:33;;;;;;;13.53;8.30;;;13.40;99.90;;;;;;5053168;28;20168;-80
2023/10/03 04:50:01;;;;;;;10.43;8.13;;;13.40;99.90;;;;;;5056669;28;20179;-79
2023/10/03 04:52:27;;;;;;;11.20;8.23;;;13.40;99.90;;;;;;5056360;28;20199;-79
2023/10/03 04:54:53;;;;;;;11.30;8.73;;;13.40;99.90;;;;;;5053580;28;20175;-80
2023/10/03 04:57:18;;;;;;;11.67;8.00;;;13.40;99.90;;;;;;5051949;28;20643;-79
2023/10/03 04:59:44;;;;;;;13.10;8.77;;;13.40;99.90;;;;;;5052301;28;20180;-81
2023/10/03 05:02:11;;;;;;;14.37;8.67;;;13.40;99.90;;;;;;5052663;28;20175;-81
2023/10/03 05:04:37;;;;;;;10.80;8.10;;;13.40;99.90;;;;;;5068953;28;20330;-78
2023/10/03 05:07:03;;;;;;;10.80;8.37;;;13.40;99.90;;;;;;5052859;28;20168;-78
2023/10/03 05:09:31;;;;;;;11.60;8.37;;;13.40;99.90;;;;;;5035130;28;20541;-78
2023/10/03 05:11:57;;;;;;;12.93;9.20;;;13.40;99.90;;;;;;5056204;28;20191;-79
2023/10/03 05:14:23;;;;;;;10.67;7.97;;;13.40;99.90;;;;;;5046022;28;20241;-77
2023/10/03 05:16:50;;;;;;;12.63;9.17;;;13.40;99.90;;;;;;5053288;28;20211;-77
2023/10/03 05:19:22;;;;;;;10.57;7.90;;;13.40;99.90;;;;;;5052279;28;20226;-77
2023/10/03 05:21:47;;;;;;;11.57;8.27;;;13.40;99.90;;;;;;5053257;28;20273;-78
2023/10/03 05:24:16;;;;;;;10.97;7.30;;;13.40;99.90;;;;;;5052730;28;20639;-79
2023/10/03 05:26:42;;;;;;;13.83;8.73;;;13.40;99.90;;;;;;5052749;28;20176;-79
2023/10/03 05:29:08;;;;;;;11.17;8.40;;;13.40;99.90;;;;;;5052554;28;20225;-79
2023/10/03 05:31:40;;;;;;;11.83;7.83;;;13.40;99.90;;;;;;5060593;28;20642;-79
2023/10/03 05:34:07;;;;;;;12.70;9.30;;;13.40;99.90;;;;;;5058680;28;20199;-77
2023/10/03 05:36:33;;;;;;;11.77;8.37;;;13.40;99.90;;;;;;5054312;28;20179;-79
2023/10/03 05:38:59;;;;;;;13.10;8.67;;;13.40;99.90;;;;;;5054234;28;20621;-77
2023/10/03 05:41:25;;;;;;;13.37;8.90;;;13.40;99.90;;;;;;5052713;28;20184;-77
2023/10/03 05:43:53;;;;;;;12.53;9.00;;;13.50;99.90;;;;;;5053811;28;20202;-76
2023/10/03 05:46:18;;;;;;;12.17;9.00;;;13.50;99.90;;;;;;5041009;28;20647;-78
2023/10/03 05:48:45;;;;;;;13.80;8.87;;;13.60;99.90;;;;;;5058998;28;20176;-77
2023/10/03 05:51:12;;;;;;;10.60;8.40;;;13.60;99.90;;;;;;5039974;28;20179;-78
2023/10/03 05:53:40;;;;;;;14.37;9.33;;;13.60;99.90;;;;;;5056347;28;20542;-77
2023/10/03 05:56:06;;;;;;;11.67;8.37;;;13.70;99.90;;;;;;5056276;28;20245;-79
2023/10/03 05:58:32;;;;;;;10.50;8.47;;;13.80;99.90;;;;;;5055662;28;20619;-78
2023/10/03 06:00:59;;;;;;;10.77;8.93;;;13.80;99.90;;;;;;5038288;28;20649;-80
2023/10/03 06:03:25;;;;;;;11.13;9.03;;;13.80;99.90;;;;;;5057182;28;20174;-77
2023/10/03 06:05:51;;;;;;;12.10;8.23;;;14.00;99.90;;;;;;5042191;28;20260;-78
2023/10/03 06:08:18;;;;;;;12.67;8.50;;;14.10;99.90;;;;;;5060330;28;20582;-76
2023/10/03 06:10:44;;;;;;;13.50;9.73;;;14.20;99.90;;;;;;5056149;28;20171;-79
2023/10/03 06:13:10;;;;;;;12.13;8.57;;;14.10;99.90;;;;;;5056286;28;20666;-79
2023/10/03 06:15:40;;;;;;;11.13;8.20;;;14.20;99.90;;;;;;5059164;28;20250;-79
2023/10/03 06:18:06;;;;;;;10.97;7.87;;;14.10;99.90;;;;;;5067944;28;20200;-80
2023/10/03 06:20:32;;;;;;;10.97;8.43;;;14.10;99.90;;;;;;5056243;28;20702;-79
2023/10/03 06:22:57;;;;;;;12.20;8.57;;;14.10;99.90;;;;;;5038895;28;20164;-77
2023/10/03 06:25:24;;;;;;;11.07;9.00;;;14.10;99.90;;;;;;5037802;28;20218;-79
2023/10/03 06:27:50;;;;;;;11.63;8.90;;;14.10;99.90;;;;;;5055537;28;20180;-81
2023/10/03 06:30:17;;;;;;;12.20;8.87;;;14.20;99.90;;;;;;5056816;28;20268;-80
2023/10/03 06:32:44;;;;;;;10.83;8.47;;;14.20;99.90;;;;;;5055439;28;20191;-79
2023/10/03 06:35:10;;;;;;;12.00;8.80;;;14.20;99.90;;;;;;5057745;28;20234;-80
2023/10/03 06:37:37;;;;;;;11.07;8.90;;;14.30;99.90;;;;;;5046349;28;20188;-78
2023/10/03 06:40:07;;;;;;;12.73;9.33;;;14.30;99.90;;;;;;5040179;28;20189;-79
2023/10/03 06:42:36;;;;;;;10.77;8.33;;;14.30;99.90;;;;;;5058720;28;20179;-78
2023/10/03 06:45:03;;;;;;;12.60;8.60;;;14.30;99.90;;;;;;5056302;28;20188;-78
2023/10/03 06:47:29;;;;;;;12.03;8.90;;;14.40;99.90;;;;;;5060145;28;20183;-78
2023/10/03 06:49:56;;;;;;;13.13;8.83;;;14.40;99.90;;;;;;5042455;28;20179;-78
2023/10/03 06:52:21;;;;;;;13.80;9.50;;;14.50;99.90;;;;;;5057116;28;20168;-78
2023/10/03 06:54:47;;;;;;;11.93;9.43;;;14.50;99.90;;;;;;5056210;28;20177;-80
2023/10/03 06:57:14;;;;;;;12.23;8.40;;;14.60;99.90;;;;;;5038474;28;20176;-77
2023/10/03 06:59:40;;;;;;;18.13;9.37;;;14.70;99.90;;;;;;5056084;28;20300;-78
2023/10/03 07:02:07;;;;;;;13.67;8.47;;;14.70;99.90;;;;;;5055389;28;20272;-78
2023/10/03 07:04:33;;;;;;;14.50;9.43;;;14.80;99.90;;;;;;5055871;28;20172;-81
2023/10/03 07:06:59;;;;;;;16.73;9.57;;;14.90;99.90;;;;;;5054934;28;20190;-79
2023/10/03 07:09:25;;;;;;;15.70;9.50;;;15.00;99.90;;;;;;5056315;28;20595;-80
2023/10/03 07:11:52;;;;;;;14.03;9.40;;;15.10;99.90;;;;;;5062718;28;20190;-79
2023/10/03 07:14:19;;;;;;;14.27;8.73;;;15.10;99.90;;;;;;5037424;28;20232;-78
2023/10/03 07:16:46;;;;;;;12.63;9.17;;;15.20;99.90;;;;;;5055073;28;20172;-79
2023/10/03 07:19:14;;;;;;;13.13;8.93;;;15.30;99.90;;;;;;5054229;28;20303;-78
2023/10/03 07:21:40;;;;;;;15.43;9.37;;;15.30;99.90;;;;;;5055226;28;20311;-78
2023/10/03 07:24:06;;;;;;;11.93;8.50;;;15.40;99.90;;;;;;5055477;28;20176;-78
2023/10/03 07:26:32;;;;;;;13.60;8.77;;;15.40;99.90;;;;;;5055041;28;20184;-79
2023/10/03 07:29:00;;;;;;;10.97;9.30;;;15.40;99.90;;;;;;5037466;28;20178;-78
2023/10/03 07:31:28;;;;;;;10.17;8.03;;;15.50;99.90;;;;;;5055979;28;20205;-80
2023/10/03 07:33:55;;;;;;;11.23;8.40;;;15.50;99.90;;;;;;5056638;28;20262;-79
2023/10/03 07:36:22;;;;;;;9.17;8.27;;;15.50;99.90;;;;;;5065268;28;20263;-79
2023/10/03 07:38:48;;;;;;;12.40;8.10;;;15.60;99.90;;;;;;5069448;28;20236;-78
2023/10/03 07:41:17;;;;;;;9.87;8.57;;;15.60;99.90;;;;;;5055228;28;20170;-78
2023/10/03 07:43:52;;;;;;;16.33;9.67;;;15.60;99.90;;;;;;5054585;28;20168;-78
2023/10/03 07:46:22;;;;;;;12.57;9.07;;;15.60;99.90;;;;;;5054532;28;20208;-79
2023/10/03 07:48:52;;;;;;;12.50;9.17;;;15.70;99.90;;;;;;5036527;28;20539;-78
2023/10/03 07:51:19;;;;;;;13.60;9.90;;;15.80;99.90;;;;;;5054078;28;20183;-80
2023/10/03 07:53:46;;;;;;;14.10;9.70;;;15.80;99.90;;;;;;5054448;28;20177;-78
2023/10/03 07:56:25;;;;;;;18.07;9.27;;;15.90;99.90;;;;;;5060083;28;20192;-79
2023/10/03 07:58:55;;;;;;;15.20;9.83;;;16.10;99.90;;;;;;5043133;28;20736;-79
2023/10/03 08:01:25;;;;;;;13.27;9.20;;;16.10;99.90;;;;;;5060548;28;20178;-79
2023/10/03 08:03:55;;;;;;;11.17;8.93;;;16.20;99.90;;;;;;5055787;28;20259;-79
2023/10/03 08:06:27;;;;;;;13.93;9.50;;;16.30;99.90;;;;;;5053606;28;20229;-78
2023/10/03 08:08:55;;;;;;;16.50;10.90;;;16.50;99.90;;;;;;5052866;28;20244;-79
2023/10/03 08:11:28;;;;;;;14.83;10.47;;;16.50;99.90;;;;;;5036509;28;20180;-80
2023/10/03 08:14:07;;;;;;;13.80;10.70;;;16.60;99.90;;;;;;5053903;28;20321;-78
2023/10/03 08:16:34;;;;;;;17.57;10.20;;;16.70;99.90;;;;;;5053155;28;20156;-79
2023/10/03 08:19:02;;;;;;;15.57;10.53;;;16.80;99.90;;;;;;5053605;28;20256;-78
2023/10/03 08:21:29;;;;;;;13.73;9.83;;;16.90;99.90;;;;;;5053259;28;20207;-79
2023/10/03 08:23:55;;;;;;;14.60;10.03;;;17.00;99.90;;;;;;5054234;28;20191;-79
2023/10/03 08:26:23;;;;;;;17.10;11.23;;;17.00;99.90;;;;;;5054316;28;20259;-79
2023/10/03 08:28:59;;;;;;;16.63;10.50;;;17.10;99.90;;;;;;5036141;28;20631;-79
2023/10/03 08:31:28;;;;;;;19.17;11.40;;;17.20;99.90;;;;;;5054896;28;20177;-79
2023/10/03 08:33:57;;;;;;;18.57;10.43;;;17.20;99.90;;;;;;5055405;28;20171;-80
2023/10/03 08:36:27;;;;;;;15.97;11.00;;;17.30;99.90;;;;;;5058161;28;20264;-82
2023/10/03 08:39:04;;;;;;;14.83;10.77;;;17.40;99.90;;;;;;5065137;28;20241;-79
2023/10/03 08:41:53;;;;;;;19.90;11.57;;;17.50;99.90;;;;;;5040380;28;20537;-80
2023/10/03 08:44:23;;;;;;;17.50;12.07;;;17.40;99.90;;;;;;5058471;28;20294;-79
2023/10/03 08:46:55;;;;;;;14.80;11.17;;;17.50;99.90;;;;;;5062173;28;20182;-78
2023/10/03 08:49:38;;;;;;;18.57;11.83;;;17.50;99.90;;;;;;5041299;28;20175;-78
2023/10/03 08:52:09;;;;;;;17.53;12.07;;;17.60;99.90;;;;;;5053605;28;20171;-80
2023/10/03 08:54:37;;;;;;;19.27;12.40;;;17.70;99.90;;;;;;5035017;28;20187;-79
2023/10/03 08:57:10;;;;;;;17.63;12.10;;;17.70;99.90;;;;;;5053061;28;20172;-78
2023/10/03 08:59:41;;;;;;;19.83;11.77;;;17.80;99.90;;;;;;5053156;28;20572;-78
2023/10/03 09:02:14;;;;;;;18.23;11.70;;;17.90;99.90;;;;;;5053363;28;20267;-78
2023/10/03 09:04:40;;;;;;;16.23;11.23;;;18.00;99.90;;;;;;5053270;28;20257;-79
2023/10/03 09:07:09;;;;;;;15.10;11.40;;;18.00;99.90;;;;;;5052992;28;20186;-78
2023/10/03 09:09:41;;;;;;;19.57;11.57;;;18.10;99.90;;;;;;5052999;28;20723;-79
2023/10/03 09:12:12;;;;;;;15.53;10.40;;;18.20;99.90;;;;;;5052945;28;20230;-78
2023/10/03 09:14:38;;;;;;;18.53;10.83;;;18.20;99.90;;;;;;5036137;28;20186;-80
2023/10/03 09:17:05;;;;;;;21.37;12.93;;;18.30;99.90;;;;;;5053859;28;20245;-77
2023/10/03 09:19:44;;;;;;;17.87;11.77;;;18.30;99.90;;;;;;5064361;28;20220;-78
2023/10/03 09:22:10;;;;;;;19.53;11.97;;;18.30;99.90;;;;;;5039503;28;20238;-78
2023/10/03 09:24:46;;;;;;;17.17;11.03;;;18.40;99.90;;;;;;5057178;28;20182;-79
2023/10/03 09:27:17;;;;;;;15.80;10.83;;;18.50;99.90;;;;;;5056948;28;20184;-78
2023/10/03 09:29:45;;;;;;;20.10;12.13;;;18.50;99.90;;;;;;5056720;28;20156;-77
2023/10/03 09:32:16;;;;;;;17.40;12.90;;;18.60;99.90;;;;;;5058625;28;20695;-77
2023/10/03 09:34:43;;;;;;;17.43;12.27;;;18.60;99.90;;;;;;5058358;28;20186;-79
2023/10/03 09:37:09;;;;;;;16.60;11.43;;;18.70;99.90;;;;;;5064154;28;20176;-78
2023/10/03 09:39:48;;;;;;;14.93;10.87;;;18.70;99.90;;;;;;5066007;28;20230;-78
2023/10/03 09:42:19;;;;;;;16.37;10.67;;;18.80;99.90;;;;;;5077013;28;20235;-78
2023/10/03 09:44:48;;;;;;;16.77;11.20;;;18.90;99.90;;;;;;5054743;28;20184;-78
2023/10/03 09:47:17;;;;;;;15.77;11.30;;;18.90;99.90;;;;;;5065209;28;20238;-80
2023/10/03 09:49:44;;;;;;;15.27;10.30;;;19.00;99.90;;;;;;5058119;28;20616;-79
2023/10/03 09:52:25;;;;;;;13.37;9.90;;;19.10;99.90;;;;;;5056270;28;20171;-78
2023/10/03 09:54:55;;;;;;;15.20;10.37;;;19.10;99.90;;;;;;5056245;28;20170;-78
2023/10/03 09:57:21;;;;;;;15.73;10.53;;;19.20;99.90;;;;;;5057256;28;20190;-78
2023/10/03 09:59:49;;;;;;;14.53;10.07;;;19.30;99.90;;;;;;5056531;28;20683;-79
2023/10/03 10:02:18;;;;;;;13.23;9.40;;;19.40;99.90;;;;;;5056292;28;20247;-78
2023/10/03 10:04:50;;;;;;;15.53;10.07;;;19.40;99.90;;;;;;5056056;28;20720;-79
2023/10/03 10:07:34;;;;;;;12.07;8.97;;;19.40;99.90;;;;;;5038088;28;20175;-79
2023/10/03 10:10:13;;;;;;;14.33;9.10;;;19.50;99.90;;;;;;5055848;28;20164;-80
2023/10/03 10:13:13;;;;;;;15.93;10.50;;;19.60;99.90;;;;;;5056022;28;20198;-78
2023/10/03 10:16:00;;;;;;;15.47;10.53;;;19.60;99.90;;;;;;5047429;28;20188;-79
2023/10/03 10:18:46;;;;;;;14.67;9.67;;;19.70;99.90;;;;;;5055414;28;20203;-78
2023/10/03 10:21:25;;;;;;;15.40;10.17;;;19.70;99.90;;;;;;5020286;28;20229;-80
2023/10/03 10:24:15;;;;;;;13.73;9.97;;;19.80;99.90;;;;;;5054788;28;20211;-80
2023/10/03 10:26:42;;;;;;;15.77;10.87;;;19.80;99.90;;;;;;5056061;28;20225;-79
2023/10/03 10:29:09;;;;;;;15.60;10.13;;;19.90;99.90;;;;;;5054876;28;20172;-78
2023/10/03 10:31:44;;;;;;;13.63;9.80;;;20.00;99.90;;;;;;5054235;28;20172;-79
2023/10/03 10:34:22;;;;;;;15.23;10.10;;;20.10;99.90;;;;;;5055745;28;20160;-78
2023/10/03 10:37:03;;;;;;;14.00;10.63;;;20.20;99.90;;;;;;5055391;28;20179;-77
2023/10/03 10:39:53;;;;;;;15.33;10.80;;;20.20;99.90;;;;;;5037450;28;20207;-81
2023/10/03 10:42:24;;;;;;;14.63;9.93;;;20.20;99.90;;;;;;5060302;28;20714;-79
2023/10/03 10:45:16;;;;;;;14.07;9.93;;;20.20;99.90;;;;;;5036909;28;20267;-78
2023/10/03 10:47:51;;;;;;;14.80;10.37;;;20.20;99.90;;;;;;5024860;28;20734;-80
2023/10/03 10:50:17;;;;;;;15.30;11.00;;;20.30;99.90;;;;;;5057041;28;20171;-78
2023/10/03 10:52:56;;;;;;;15.40;10.10;;;20.40;99.90;;;;;;5060625;28;20180;-78
2023/10/03 10:55:26;;;;;;;14.60;10.07;;;20.40;99.90;;;;;;5058611;28;20156;-78
2023/10/03 10:58:12;;;;;;;13.57;10.20;;;20.40;99.90;;;;;;5056462;28;20184;-79
2023/10/03 11:00:39;;;;;;;17.80;10.70;;;20.40;99.90;;;;;;5037093;28;20627;-80
2023/10/03 11:03:06;;;;;;;14.03;9.70;;;20.40;99.90;;;;;;5060019;28;20198;-79
2023/10/03 11:05:44;;;;;;;14.63;10.63;;;20.50;99.90;;;;;;5055098;28;20335;-79
2023/10/03 11:08:10;;;;;;;16.17;9.43;;;20.50;99.90;;;;;;5036240;28;20274;-79
2023/10/03 11:10:52;;;;;;;15.30;10.13;;;20.50;99.90;;;;;;5054403;28;20251;-78
2023/10/03 11:13:19;;;;;;;13.50;9.27;;;20.60;99.90;;;;;;5055186;28;20167;-79
2023/10/03 11:15:54;;;;;;;14.93;10.20;;;20.60;99.90;;;;;;5054441;28;20186;-79
2023/10/03 11:18:32;;;;;;;16.10;10.43;;;20.70;99.90;;;;;;5053768;28;20282;-78
2023/10/03 11:21:00;;;;;;;14.67;9.20;;;20.70;99.90;;;;;;5053835;28;20215;-79
2023/10/03 11:23:26;;;;;;;15.70;9.73;;;20.70;99.90;;;;;;5054462;28;20168;-79
2023/10/03 11:25:56;;;;;;;15.07;11.20;;;20.70;99.90;;;;;;5054022;28;20184;-78
2023/10/03 11:28:23;;;;;;;12.73;9.63;;;20.80;99.90;;;;;;5054438;28;20167;-79
2023/10/03 11:31:05;;;;;;;13.10;9.23;;;20.90;99.90;;;;;;5053971;28;20176;-79
2023/10/03 11:33:44;;;;;;;15.50;10.43;;;20.90;99.90;;;;;;5059142;28;20165;-81
2023/10/03 11:36:12;;;;;;;14.67;9.57;;;20.90;99.90;;;;;;5062879;28;20183;-80
2023/10/03 11:38:50;;;;;;;12.70;9.37;;;20.90;99.90;;;;;;5067727;28;20214;-79
2023/10/03 11:41:33;;;;;;;17.47;10.20;;;21.00;99.90;;;;;;5057886;28;20187;-78
2023/10/03 11:44:00;;;;;;;15.10;9.80;;;21.10;99.90;;;;;;5053641;28;20213;-77
2023/10/03 11:46:26;;;;;;;12.73;9.30;;;21.20;99.90;;;;;;5053812;28;20229;-78
2023/10/03 11:49:00;;;;;;;14.80;10.93;;;21.30;99.90;;;;;;5053683;28;20623;-78
2023/10/03 11:51:29;;;;;;;13.70;9.80;;;21.50;99.90;;;;;;5036141;28;20184;-79
2023/10/03 11:53:55;;;;;;;15.73;9.50;;;21.60;99.90;;;;;;5053700;28;20218;-79
2023/10/03 11:56:20;;;;;;;13.53;9.63;;;21.60;99.90;;;;;;5053556;28;20595;-79
2023/10/03 11:58:46;;;;;;;16.53;11.60;;;21.60;99.90;;;;;;5053408;28;20214;-78
2023/10/03 12:01:12;;;;;;;15.13;10.10;;;21.60;99.90;;;;;;5053590;28;20172;-79
2023/10/03 12:03:38;;;;;;;21.97;14.33;;;21.60;99.90;;;;;;5061437;28;20175;-79
2023/10/03 12:06:04;;;;;;;16.90;10.47;;;21.50;99.90;;;;;;5057685;28;20246;-80
2023/10/03 12:08:32;;;;;;;14.20;10.07;;;21.60;99.90;;;;;;5036380;28;20596;-77
2023/10/03 12:10:58;;;;;;;18.27;11.23;;;21.60;99.90;;;;;;5053496;28;20163;-78
2023/10/03 12:13:24;;;;;;;15.03;10.67;;;21.70;99.90;;;;;;5053402;28;20251;-80
2023/10/03 12:15:50;;;;;;;13.30;10.07;;;21.70;99.90;;;;;;5053203;28;20272;-79
2023/10/03 12:18:16;;;;;;;14.57;9.87;;;21.70;99.90;;;;;;5052900;28;20659;-78
2023/10/03 12:20:44;;;;;;;13.93;9.83;;;21.90;99.90;;;;;;5053184;28;20219;-78
2023/10/03 12:23:10;;;;;;;18.63;10.70;;;22.00;99.90;;;;;;5034902;28;20841;-79
2023/10/03 12:25:36;;;;;;;16.33;9.50;;;22.10;99.90;;;;;;5052875;28;20187;-78
2023/10/03 12:28:02;;;;;;;16.53;10.53;;;22.10;99.90;;;;;;5053159;28;20225;-78
2023/10/03 12:30:27;;;;;;;17.10;10.83;;;22.00;99.90;;;;;;5054029;28;20531;-78
2023/10/03 12:32:53;;;;;;;15.47;10.60;;;22.00;99.90;;;;;;5054454;28;20178;-79
2023/10/03 12:35:19;;;;;;;16.10;10.50;;;22.10;99.90;;;;;;5054547;28;20189;-78
2023/10/03 12:37:47;;;;;;;15.80;11.90;;;22.00;99.90;;;;;;5055215;28;20631;-79
2023/10/03 12:40:16;;;;;;;15.48;10.00;;;22.10;99.90;;;;;;5037000;28;20643;-79
2023/10/03 12:42:51;;;;;;;14.70;10.70;;;22.10;99.90;;;;;;5035474;28;20187;-78
2023/10/03 12:45:20;;;;;;;15.03;10.30;;;22.20;99.90;;;;;;5053869;28;20170;-79
2023/10/03 12:47:47;;;;;;;15.43;11.00;;;22.20;99.90;;;;;;5035886;28;20180;-78
2023/10/03 12:50:25;;;;;;;13.87;9.83;;;22.30;99.90;;;;;;5054219;28;20176;-79